Time;durP1;ratioP1;P1;durP2;ratioP2;P2;SDS_P1;SDS_P2;PMS_P1;PMS_P2;Temp;Humidity;BMP_temperature;BMP_pressure;BME280_temperature;BME280_humidity;BME280_pressure;Samples;Min_cycle;Max_cycle;Signal;HPM_P1;HPM_P2
2021/04/21 00:01:18;;;;;;;42.85;28.15;;;8.90;99.90;;;;;;5113933;28;20019;-73
2021/04/21 00:03:44;;;;;;;45.38;28.83;;;8.90;99.90;;;;;;5112032;28;20023;-73
2021/04/21 00:06:13;;;;;;;48.80;29.77;;;8.80;99.90;;;;;;5113952;28;20096;-72
2021/04/21 00:08:39;;;;;;;50.03;31.08;;;8.80;99.90;;;;;;5113714;28;20019;-73
2021/04/21 00:11:06;;;;;;;49.92;31.17;;;8.80;99.90;;;;;;5113059;28;20047;-74
2021/04/21 00:13:35;;;;;;;45.63;28.02;;;8.70;99.90;;;;;;5113574;28;20067;-73
2021/04/21 00:16:01;;;;;;;43.22;27.55;;;8.70;99.90;;;;;;5113628;28;20462;-73
2021/04/21 00:18:28;;;;;;;45.30;28.73;;;8.70;99.90;;;;;;5112997;28;20024;-74
2021/04/21 00:20:59;;;;;;;41.83;26.50;;;8.70;99.90;;;;;;5105086;28;20119;-74
2021/04/21 00:23:26;;;;;;;40.80;26.45;;;8.70;99.90;;;;;;5108506;28;20051;-74
2021/04/21 00:25:54;;;;;;;39.95;26.30;;;8.60;99.90;;;;;;5113029;28;20031;-73
2021/04/21 00:28:23;;;;;;;45.97;27.75;;;8.60;99.90;;;;;;5101980;28;20016;-74
2021/04/21 00:30:50;;;;;;;43.95;28.58;;;8.50;99.90;;;;;;5110786;28;20065;-73
2021/04/21 00:33:17;;;;;;;48.88;30.00;;;8.50;99.90;;;;;;5122202;28;20084;-74
2021/04/21 00:35:44;;;;;;;50.35;29.88;;;8.50;99.90;;;;;;5114434;28;20027;-73
2021/04/21 00:38:19;;;;;;;48.28;29.08;;;8.50;99.90;;;;;;5112760;28;20414;-74
2021/04/21 00:40:44;;;;;;;44.63;29.10;;;8.50;99.90;;;;;;5113271;28;20027;-74
2021/04/21 00:43:31;;;;;;;52.45;29.88;;;8.50;99.90;;;;;;5115122;28;20031;-73
2021/04/21 00:46:26;;;;;;;53.08;29.67;;;8.50;99.90;;;;;;5113993;28;20019;-74
2021/04/21 00:48:58;;;;;;;54.38;31.63;;;8.50;99.90;;;;;;5119141;28;20062;-73
2021/04/21 00:51:30;;;;;;;53.90;29.98;;;8.50;99.90;;;;;;5113343;28;20124;-73
2021/04/21 00:54:33;;;;;;;43.05;27.90;;;8.50;99.90;;;;;;5112455;28;20027;-75
2021/04/21 00:57:10;;;;;;;47.70;27.25;;;8.50;99.90;;;;;;5109999;28;20028;-73
2021/04/21 00:59:58;;;;;;;45.85;26.30;;;8.50;99.90;;;;;;5112175;28;20023;-74
2021/04/21 01:02:30;;;;;;;43.08;25.40;;;8.40;99.90;;;;;;5112726;28;20079;-73
2021/04/21 01:04:57;;;;;;;43.83;24.80;;;8.40;99.90;;;;;;5105980;28;20020;-73
2021/04/21 01:07:26;;;;;;;42.33;23.98;;;8.40;99.90;;;;;;5104888;28;20036;-73
2021/04/21 01:09:55;;;;;;;43.70;25.70;;;8.50;99.90;;;;;;5112600;28;20020;-74
2021/04/21 01:12:22;;;;;;;41.05;25.23;;;8.40;99.90;;;;;;5107849;28;20032;-74
2021/04/21 01:14:52;;;;;;;38.75;23.95;;;8.40;99.90;;;;;;5090938;28;20024;-73
2021/04/21 01:17:19;;;;;;;44.40;25.95;;;8.40;99.90;;;;;;5100026;28;20043;-75
2021/04/21 01:20:03;;;;;;;40.47;25.15;;;8.40;99.90;;;;;;5106652;28;20027;-74
2021/04/21 01:22:40;;;;;;;44.50;25.67;;;8.40;99.90;;;;;;5099643;28;20027;-76
2021/04/21 01:26:00;;;;;;;41.83;25.70;;;8.40;99.90;;;;;;5112405;28;20023;-73
2021/04/21 01:28:27;;;;;;;41.43;24.20;;;8.40;99.90;;;;;;5062211;28;20467;-74
2021/04/21 01:30:54;;;;;;;40.97;24.58;;;8.30;99.90;;;;;;5100774;28;20058;-74
2021/04/21 01:33:23;;;;;;;38.17;23.55;;;8.30;99.90;;;;;;5109443;28;20420;-73
2021/04/21 01:36:06;;;;;;;42.60;23.10;;;8.20;99.90;;;;;;5111786;28;20031;-74
2021/04/21 01:38:33;;;;;;;41.13;25.00;;;8.20;99.90;;;;;;5111981;28;20032;-73
2021/04/21 01:41:05;;;;;;;37.38;22.70;;;8.20;99.90;;;;;;5112120;28;20416;-73
2021/04/21 01:43:42;;;;;;;36.55;22.42;;;8.20;99.90;;;;;;5111141;28;20028;-73
2021/04/21 01:46:10;;;;;;;38.67;23.15;;;8.10;99.90;;;;;;5112362;28;20081;-74
2021/04/21 01:48:39;;;;;;;43.85;25.95;;;8.10;99.90;;;;;;5096353;28;20024;-73
2021/04/21 01:51:15;;;;;;;44.92;27.33;;;8.10;99.90;;;;;;5111974;28;20097;-72
2021/04/21 01:53:50;;;;;;;48.70;28.05;;;8.10;99.90;;;;;;5111731;28;20024;-73
2021/04/21 01:56:29;;;;;;;48.22;27.85;;;8.00;99.90;;;;;;5111614;28;20023;-74
2021/04/21 01:59:01;;;;;;;49.88;27.58;;;8.00;99.90;;;;;;5112150;28;20064;-73
2021/04/21 02:01:42;;;;;;;47.90;27.25;;;8.00;99.90;;;;;;5111850;28;20058;-74
2021/04/21 02:04:21;;;;;;;49.70;26.65;;;8.00;99.90;;;;;;5111309;28;20089;-73
2021/04/21 02:07:16;;;;;;;53.42;28.90;;;8.00;99.90;;;;;;5112419;28;20035;-73
2021/04/21 02:10:02;;;;;;;46.95;26.40;;;8.00;99.90;;;;;;5111145;28;20459;-74
2021/04/21 02:12:42;;;;;;;43.53;25.17;;;8.00;99.90;;;;;;5111707;28;20043;-74
2021/04/21 02:15:25;;;;;;;41.78;25.63;;;8.00;99.90;;;;;;5115792;28;20020;-75
2021/04/21 02:17:57;;;;;;;45.55;25.67;;;8.00;99.90;;;;;;5115588;28;20418;-74
2021/04/21 02:20:37;;;;;;;39.88;24.55;;;7.90;99.90;;;;;;5115896;28;20024;-74
2021/04/21 02:23:25;;;;;;;40.42;24.80;;;7.90;99.90;;;;;;5101717;28;20084;-74
2021/04/21 02:26:09;;;;;;;45.63;23.17;;;7.80;99.90;;;;;;5116284;28;20024;-73
2021/04/21 02:29:09;;;;;;;48.53;25.17;;;7.80;99.90;;;;;;5106799;28;20077;-73
2021/04/21 02:31:56;;;;;;;58.88;30.98;;;7.80;99.90;;;;;;5114437;28;20031;-74
2021/04/21 02:34:40;;;;;;;47.53;29.50;;;7.70;99.90;;;;;;5117161;28;20036;-73
2021/04/21 02:37:15;;;;;;;50.78;30.13;;;7.70;99.90;;;;;;5123645;28;20085;-74
2021/04/21 02:40:12;;;;;;;48.78;30.17;;;7.80;99.90;;;;;;5115184;28;20471;-73
2021/04/21 02:43:00;;;;;;;49.45;29.10;;;7.80;99.90;;;;;;5115574;28;20057;-73
2021/04/21 02:45:45;;;;;;;45.53;27.48;;;7.80;99.90;;;;;;5102833;28;20031;-74
2021/04/21 02:48:12;;;;;;;44.83;27.67;;;7.80;99.90;;;;;;5116812;28;20028;-74
2021/04/21 02:50:49;;;;;;;55.72;30.15;;;7.70;99.90;;;;;;5124277;27;20063;-75
2021/04/21 02:53:27;;;;;;;52.05;29.45;;;7.70;99.90;;;;;;5135763;27;20031;-74
2021/04/21 02:56:12;;;;;;;49.97;28.70;;;7.60;99.90;;;;;;5136161;27;20027;-73
2021/04/21 02:58:43;;;;;;;49.63;28.25;;;7.60;99.90;;;;;;5134599;27;20088;-72
2021/04/21 03:01:37;;;;;;;50.67;28.73;;;7.60;99.90;;;;;;5136016;27;20064;-73
2021/04/21 03:04:09;;;;;;;49.45;29.80;;;7.60;99.90;;;;;;5135792;27;20015;-75
2021/04/21 03:06:42;;;;;;;50.05;31.65;;;7.50;99.90;;;;;;5134614;27;20039;-75
2021/04/21 03:09:16;;;;;;;48.90;29.42;;;7.60;99.90;;;;;;5135915;27;20027;-73
2021/04/21 03:11:42;;;;;;;49.88;30.75;;;7.50;99.90;;;;;;5135228;27;20035;-73
2021/04/21 03:14:18;;;;;;;50.05;29.88;;;7.40;99.90;;;;;;5134856;27;20049;-74
2021/04/21 03:16:47;;;;;;;50.75;29.55;;;7.40;99.90;;;;;;5135722;27;20031;-73
2021/04/21 03:19:17;;;;;;;48.65;31.40;;;7.50;99.90;;;;;;5135266;27;20151;-74
2021/04/21 03:21:49;;;;;;;51.60;30.50;;;7.50;99.90;;;;;;5126131;27;20127;-76
2021/04/21 03:24:23;;;;;;;56.80;30.20;;;7.50;99.90;;;;;;5130569;27;20027;-74
2021/04/21 03:26:51;;;;;;;52.50;30.13;;;7.50;99.90;;;;;;5134096;27;20034;-74
2021/04/21 03:29:24;;;;;;;51.08;32.22;;;7.50;99.90;;;;;;5135404;27;20057;-74
2021/04/21 03:31:51;;;;;;;50.88;30.52;;;7.40;99.90;;;;;;5135824;27;20063;-75
2021/04/21 03:34:19;;;;;;;51.42;29.45;;;7.30;99.90;;;;;;5134850;27;20023;-73
2021/04/21 03:36:45;;;;;;;50.25;31.33;;;7.30;99.90;;;;;;5135001;27;20521;-72
2021/04/21 03:39:11;;;;;;;52.05;30.58;;;7.20;99.90;;;;;;5135124;27;20073;-74
2021/04/21 03:41:37;;;;;;;58.17;32.10;;;7.20;99.90;;;;;;5134117;27;20020;-74
2021/04/21 03:44:04;;;;;;;56.40;31.98;;;7.10;99.90;;;;;;5135549;27;20030;-73
2021/04/21 03:46:33;;;;;;;48.92;30.45;;;7.10;99.90;;;;;;5120287;27;20031;-74
2021/04/21 03:49:00;;;;;;;61.20;32.00;;;7.10;99.90;;;;;;5134402;27;20486;-74
2021/04/21 03:51:26;;;;;;;61.22;31.55;;;7.10;99.90;;;;;;5125618;27;20055;-73
2021/04/21 03:53:52;;;;;;;56.05;31.02;;;7.00;99.90;;;;;;5101230;28;20023;-74
2021/04/21 03:56:23;;;;;;;55.42;33.20;;;7.10;99.90;;;;;;5113777;28;20080;-74
2021/04/21 03:58:50;;;;;;;;;;;7.10;99.90;;;;;;5114725;28;20098;-73
2021/04/21 04:01:18;;;;;;;47.20;28.60;;;7.10;99.90;;;;;;5114472;28;19927;-72
2021/04/21 04:03:55;;;;;;;54.58;28.80;;;7.10;99.90;;;;;;5116791;28;20080;-73
2021/04/21 04:06:32;;;;;;;48.60;29.20;;;7.10;99.90;;;;;;5114063;28;20043;-73
2021/04/21 04:09:02;;;;;;;52.60;29.40;;;7.10;99.90;;;;;;5113466;28;20027;-74
2021/04/21 04:11:41;;;;;;;54.85;29.52;;;7.10;99.90;;;;;;5114179;28;20043;-73
2021/04/21 04:14:27;;;;;;;53.33;28.05;;;7.10;99.90;;;;;;5114421;28;20012;-74
2021/04/21 04:16:55;;;;;;;54.47;26.83;;;7.10;99.90;;;;;;5099020;28;20024;-74
2021/04/21 04:19:21;;;;;;;45.30;27.55;;;7.10;99.90;;;;;;5113695;28;20031;-73
2021/04/21 04:22:07;;;;;;;39.25;25.40;;;7.00;99.90;;;;;;5105094;28;20093;-74
2021/04/21 04:24:40;;;;;;;45.40;26.55;;;7.00;99.90;;;;;;5110220;28;20020;-74
2021/04/21 04:27:08;;;;;;;43.78;25.60;;;6.90;99.90;;;;;;5113517;28;20019;-75
2021/04/21 04:29:34;;;;;;;47.28;27.75;;;6.90;99.90;;;;;;5113124;28;20059;-75
2021/04/21 04:32:02;;;;;;;48.58;26.98;;;6.80;99.90;;;;;;5112930;28;20032;-74
2021/04/21 04:34:29;;;;;;;42.88;25.70;;;6.80;99.90;;;;;;5112537;28;20045;-75
2021/04/21 04:36:55;;;;;;;41.30;24.50;;;6.80;99.90;;;;;;5105669;28;20036;-74
2021/04/21 04:39:22;;;;;;;52.60;27.05;;;6.90;99.90;;;;;;5103554;28;20083;-74
2021/04/21 04:41:48;;;;;;;43.63;25.60;;;6.80;99.90;;;;;;5114896;28;20034;-75
2021/04/21 04:44:14;;;;;;;43.25;25.42;;;6.80;99.90;;;;;;5112744;28;20027;-75
2021/04/21 04:46:46;;;;;;;46.33;25.65;;;6.90;99.90;;;;;;5113020;28;20024;-74
2021/04/21 04:49:15;;;;;;;38.97;23.63;;;6.80;99.90;;;;;;5107268;28;20101;-75
2021/04/21 04:51:46;;;;;;;42.13;23.52;;;6.90;99.90;;;;;;5109889;28;20372;-74
2021/04/21 04:54:13;;;;;;;;;;;6.90;99.90;;;;;;5122552;28;20027;-75
2021/04/21 04:56:42;;;;;;;42.70;23.85;;;7.00;99.90;;;;;;5110377;28;20293;-73
2021/04/21 04:59:08;;;;;;;42.45;23.90;;;6.90;99.90;;;;;;5091927;28;20016;-72
2021/04/21 05:01:58;;;;;;;46.10;25.13;;;6.90;99.90;;;;;;5091872;28;20020;-75
2021/04/21 05:04:39;;;;;;;43.17;24.02;;;6.90;99.90;;;;;;5089638;28;20054;-73
2021/04/21 05:07:07;;;;;;;40.70;22.40;;;6.90;99.90;;;;;;5098374;28;20403;-73
2021/04/21 05:09:43;;;;;;;45.00;25.52;;;6.90;99.90;;;;;;5094659;28;20118;-72
2021/04/21 05:12:11;;;;;;;48.03;26.08;;;6.90;99.90;;;;;;5091119;28;20032;-73
2021/04/21 05:14:46;;;;;;;38.30;23.27;;;6.90;99.90;;;;;;5090942;28;20035;-73
2021/04/21 05:17:32;;;;;;;41.15;23.65;;;7.00;99.90;;;;;;5091233;28;20031;-72
2021/04/21 05:20:16;;;;;;;46.40;24.08;;;7.00;99.90;;;;;;5091389;28;20024;-73
2021/04/21 05:23:08;;;;;;;46.28;24.50;;;7.00;99.90;;;;;;5094011;28;20435;-75
2021/04/21 05:26:01;;;;;;;40.65;21.95;;;7.00;99.90;;;;;;5091110;28;20024;-74
2021/04/21 05:29:09;;;;;;;41.13;20.45;;;7.10;99.90;;;;;;5090526;28;20479;-74
2021/04/21 05:32:10;;;;;;;46.65;21.42;;;7.10;99.90;;;;;;5091412;28;20040;-74
2021/04/21 05:34:56;;;;;;;41.10;21.77;;;7.10;99.90;;;;;;5090695;28;20016;-74
2021/04/21 05:37:58;;;;;;;37.47;22.35;;;7.10;99.90;;;;;;5100597;28;20043;-73
2021/04/21 05:40:56;;;;;;;44.20;23.77;;;7.10;99.90;;;;;;5091101;28;20046;-74
2021/04/21 05:43:40;;;;;;;39.92;23.38;;;7.20;99.90;;;;;;5091579;28;20406;-73
2021/04/21 05:46:46;;;;;;;40.10;22.38;;;7.20;99.90;;;;;;5091721;28;20147;-73
2021/04/21 05:49:30;;;;;;;38.75;22.50;;;7.20;99.90;;;;;;5045343;28;20060;-74
2021/04/21 05:52:13;;;;;;;44.80;23.88;;;7.30;99.90;;;;;;5054955;28;20049;-74
2021/04/21 05:55:16;;;;;;;40.90;23.80;;;7.30;99.90;;;;;;5092345;28;20024;-74
2021/04/21 05:58:16;;;;;;;44.50;22.77;;;7.40;99.90;;;;;;5102681;28;20019;-75
2021/04/21 06:01:03;;;;;;;44.55;25.08;;;7.50;99.90;;;;;;5108743;28;20041;-73
2021/04/21 06:03:32;;;;;;;47.08;25.38;;;7.50;99.90;;;;;;5107753;28;20016;-73
2021/04/21 06:06:04;;;;;;;49.65;25.35;;;7.50;99.90;;;;;;5110700;28;20027;-73
2021/04/21 06:08:30;;;;;;;46.47;26.00;;;7.60;99.90;;;;;;5106549;28;20027;-73
2021/04/21 06:10:56;;;;;;;41.67;25.38;;;7.70;99.90;;;;;;5108832;28;20016;-75
2021/04/21 06:13:32;;;;;;;47.70;27.10;;;7.60;99.90;;;;;;5111154;28;20019;-73
2021/04/21 06:15:59;;;;;;;41.05;26.83;;;7.70;99.90;;;;;;5107040;28;20023;-72
2021/04/21 06:18:25;;;;;;;45.75;26.98;;;7.80;99.90;;;;;;5106388;28;20032;-73
2021/04/21 06:20:51;;;;;;;50.58;27.80;;;7.80;99.90;;;;;;5109739;28;20050;-74
2021/04/21 06:23:25;;;;;;;44.33;27.35;;;7.90;99.90;;;;;;5108037;28;20028;-73
2021/04/21 06:25:58;;;;;;;50.42;26.95;;;7.90;99.90;;;;;;5099592;28;20012;-73
2021/04/21 06:28:24;;;;;;;43.25;27.05;;;8.00;99.90;;;;;;5108256;28;20118;-73
2021/04/21 06:31:10;;;;;;;51.00;27.27;;;8.10;99.90;;;;;;5106123;28;20102;-73
2021/04/21 06:33:39;;;;;;;49.92;27.33;;;8.10;99.90;;;;;;5109399;28;20026;-74
2021/04/21 06:36:06;;;;;;;50.28;30.45;;;8.20;99.90;;;;;;5107937;28;20106;-74
2021/04/21 06:38:33;;;;;;;56.40;32.33;;;8.30;99.90;;;;;;5110592;28;20425;-73
2021/04/21 06:41:00;;;;;;;47.72;29.75;;;8.30;99.90;;;;;;5109824;28;20532;-74
2021/04/21 06:43:31;;;;;;;58.42;31.67;;;8.40;99.90;;;;;;5104834;28;20028;-76
2021/04/21 06:45:58;;;;;;;49.25;31.13;;;8.40;99.90;;;;;;5109343;28;20026;-76
2021/04/21 06:48:41;;;;;;;52.28;29.58;;;8.50;99.90;;;;;;5108184;28;20020;-77
2021/04/21 06:51:17;;;;;;;46.40;28.00;;;8.60;99.90;;;;;;5112273;28;20032;-77
2021/04/21 06:53:44;;;;;;;50.83;28.58;;;8.60;99.90;;;;;;5106897;28;20028;-77
2021/04/21 06:56:10;;;;;;;54.80;28.30;;;8.70;99.90;;;;;;5091852;28;20156;-76
2021/04/21 06:58:38;;;;;;;50.50;28.13;;;8.80;99.90;;;;;;5092078;28;20016;-75
2021/04/21 07:01:11;;;;;;;61.95;29.75;;;8.90;99.90;;;;;;5093071;28;20057;-77
2021/04/21 07:03:37;;;;;;;46.33;25.85;;;9.00;99.90;;;;;;5094800;28;20027;-76
2021/04/21 07:06:03;;;;;;;54.28;28.33;;;9.10;99.90;;;;;;5094279;28;20023;-77
2021/04/21 07:08:34;;;;;;;54.08;29.98;;;9.20;99.90;;;;;;5094902;28;20028;-78
2021/04/21 07:11:01;;;;;;;48.42;28.77;;;9.20;99.90;;;;;;5095244;28;20060;-78
2021/04/21 07:13:36;;;;;;;50.13;28.33;;;9.30;99.90;;;;;;5094412;28;20028;-79
2021/04/21 07:16:08;;;;;;;46.83;25.85;;;9.40;99.90;;;;;;5095574;28;20031;-78
2021/04/21 07:18:37;;;;;;;50.97;27.77;;;9.50;99.90;;;;;;5094521;28;20035;-80
2021/04/21 07:21:08;;;;;;;51.17;26.98;;;9.50;99.90;;;;;;5094274;28;20036;-80
2021/04/21 07:23:34;;;;;;;;;;;9.50;99.90;;;;;;5105037;28;20059;-79
2021/04/21 07:26:00;;;;;;;47.55;26.45;;;9.60;99.90;;;;;;5115012;28;19903;-80
2021/04/21 07:28:26;;;;;;;45.20;27.35;;;9.60;99.90;;;;;;5108179;28;20077;-81
2021/04/21 07:30:54;;;;;;;50.78;27.77;;;9.70;99.90;;;;;;5109944;28;20067;-81
2021/04/21 07:33:37;;;;;;;52.58;29.20;;;9.90;99.90;;;;;;5114134;28;20020;-77
2021/04/21 07:36:12;;;;;;;55.17;26.85;;;9.90;99.90;;;;;;5118721;28;20019;-82
2021/04/21 07:38:40;;;;;;;53.75;28.80;;;9.90;99.90;;;;;;5119448;28;20476;-82
2021/04/21 07:41:05;;;;;;;43.38;25.30;;;10.00;99.90;;;;;;5118870;28;20031;-83
2021/04/21 07:43:41;;;;;;;51.25;29.40;;;10.10;99.90;;;;;;5118805;28;20023;-81
2021/04/21 07:46:21;;;;;;;51.10;29.85;;;10.10;99.90;;;;;;5116261;28;20144;-80
2021/04/21 07:48:48;;;;;;;53.47;29.70;;;10.20;99.90;;;;;;5092784;28;20324;-78
2021/04/21 07:51:17;;;;;;;57.92;32.63;;;10.30;99.90;;;;;;5113651;27;20046;-78
2021/04/21 07:53:54;;;;;;;57.88;32.63;;;10.40;99.90;;;;;;5126178;27;20015;-78
2021/04/21 07:56:22;;;;;;;57.10;32.17;;;10.50;99.90;;;;;;5118648;27;20050;-80
2021/04/21 07:58:51;;;;;;;57.65;33.58;;;10.50;99.90;;;;;;5117097;27;20027;-80
2021/04/21 08:01:35;;;;;;;56.90;33.15;;;10.70;99.90;;;;;;5124561;27;20080;-80
2021/04/21 08:04:33;;;;;;;47.92;32.65;;;10.80;99.90;;;;;;5112878;27;20471;-77
2021/04/21 08:07:01;;;;;;;50.92;31.40;;;10.90;99.90;;;;;;5081353;27;20097;-77
2021/04/21 08:09:34;;;;;;;51.30;30.88;;;10.90;99.90;;;;;;5113059;27;20472;-76
2021/04/21 08:12:14;;;;;;;52.63;33.45;;;11.00;99.90;;;;;;5121141;27;20062;-77
2021/04/21 08:14:46;;;;;;;56.53;32.85;;;11.00;99.90;;;;;;5121640;27;20024;-78
2021/04/21 08:17:14;;;;;;;55.83;33.85;;;11.20;99.90;;;;;;5111475;27;20058;-78
2021/04/21 08:19:45;;;;;;;52.30;32.42;;;11.20;99.90;;;;;;5118684;27;20047;-77
2021/04/21 08:22:11;;;;;;;;;;;11.40;99.90;;;;;;5119775;27;20031;-76
2021/04/21 08:24:39;;;;;;;45.97;27.80;;;11.50;99.90;;;;;;5115115;27;19908;-78
2021/04/21 08:27:07;;;;;;;45.30;27.38;;;11.60;99.90;;;;;;5119330;27;20050;-78
2021/04/21 08:29:32;;;;;;;46.42;30.08;;;11.60;99.90;;;;;;5108036;28;20023;-78
2021/04/21 08:31:58;;;;;;;48.17;30.33;;;11.80;99.90;;;;;;5115244;27;20023;-76
2021/04/21 08:34:23;;;;;;;42.03;27.13;;;11.80;99.90;;;;;;5110088;27;20069;-77
2021/04/21 08:36:49;;;;;;;49.67;28.77;;;11.90;99.90;;;;;;5113041;27;20039;-78
2021/04/21 08:39:15;;;;;;;45.97;28.35;;;11.90;99.90;;;;;;5125667;27;20019;-78
2021/04/21 08:41:42;;;;;;;49.13;29.60;;;11.90;99.90;;;;;;5102082;27;20034;-77
2021/04/21 08:44:08;;;;;;;43.83;28.38;;;12.00;99.90;;;;;;5106541;27;20145;-77
2021/04/21 08:46:34;;;;;;;41.60;26.13;;;12.00;99.90;;;;;;5114494;27;20028;-79
2021/04/21 08:49:02;;;;;;;45.60;28.02;;;12.00;99.90;;;;;;5108494;27;20069;-79
2021/04/21 08:51:29;;;;;;;42.72;27.85;;;12.00;99.90;;;;;;5120717;27;20043;-79
2021/04/21 08:54:03;;;;;;;46.08;28.90;;;12.00;99.90;;;;;;5125898;27;20463;-79
2021/04/21 08:56:35;;;;;;;43.15;26.80;;;12.10;99.90;;;;;;5128160;27;20022;-79
2021/04/21 08:59:03;;;;;;;41.08;25.75;;;12.00;99.90;;;;;;5124301;27;20076;-79
2021/04/21 09:01:30;;;;;;;49.70;27.45;;;12.00;99.90;;;;;;5135089;27;20023;-79
2021/04/21 09:03:56;;;;;;;44.92;27.13;;;12.00;99.90;;;;;;5128071;27;20022;-81
2021/04/21 09:06:22;;;;;;;47.75;25.48;;;12.10;99.90;;;;;;5124476;27;20479;-79
2021/04/21 09:08:54;;;;;;;41.15;26.05;;;12.20;99.90;;;;;;5126818;27;20374;-79
2021/04/21 09:11:21;;;;;;;41.22;24.40;;;12.20;99.90;;;;;;5126819;27;20386;-80
2021/04/21 09:13:47;;;;;;;40.70;24.33;;;12.30;99.90;;;;;;5126423;27;20035;-80
2021/04/21 09:16:13;;;;;;;43.80;25.40;;;12.40;99.90;;;;;;5130508;27;20047;-80
2021/04/21 09:18:39;;;;;;;43.28;24.15;;;12.40;99.90;;;;;;5127668;27;20110;-80
2021/04/21 09:21:15;;;;;;;42.00;24.10;;;12.50;99.90;;;;;;5122331;27;20177;-80
2021/04/21 09:23:42;;;;;;;43.67;22.75;;;12.60;99.90;;;;;;5131232;27;20052;-78
2021/04/21 09:26:18;;;;;;;45.78;23.67;;;12.50;99.90;;;;;;5131071;27;20096;-79
2021/04/21 09:28:47;;;;;;;39.30;22.05;;;12.50;99.90;;;;;;5132057;27;20034;-80
2021/04/21 09:31:34;;;;;;;39.97;23.40;;;12.60;99.90;;;;;;5128012;27;20039;-79
2021/04/21 09:34:16;;;;;;;42.05;23.42;;;12.50;99.90;;;;;;5130299;27;20455;-80
2021/04/21 09:36:49;;;;;;;43.53;22.75;;;12.50;99.90;;;;;;5131689;27;20027;-80
2021/04/21 09:39:20;;;;;;;39.33;21.92;;;12.60;99.90;;;;;;5131949;27;20051;-79
2021/04/21 09:41:47;;;;;;;37.25;19.65;;;12.50;99.90;;;;;;5130188;27;20038;-79
2021/04/21 09:44:14;;;;;;;34.60;20.33;;;12.20;99.90;;;;;;5132808;27;20015;-82
2021/04/21 09:46:41;;;;;;;30.58;19.70;;;12.10;99.90;;;;;;5125684;27;20493;-82
2021/04/21 09:49:32;;;;;;;33.17;18.52;;;12.10;99.90;;;;;;5128278;27;20027;-82
2021/04/21 09:52:01;;;;;;;33.08;17.75;;;12.00;99.90;;;;;;5110458;27;20134;-81
2021/04/21 09:54:36;;;;;;;28.60;15.90;;;12.10;99.90;;;;;;5110695;28;20102;-81
2021/04/21 09:57:09;;;;;;;27.58;18.40;;;12.10;99.90;;;;;;5130267;27;20027;-81
2021/04/21 09:59:36;;;;;;;30.25;18.77;;;12.00;99.90;;;;;;5106077;28;20024;-81
2021/04/21 10:02:03;;;;;;;36.10;19.13;;;12.10;99.90;;;;;;5111056;28;20026;-81
2021/04/21 13:30:20;;;;;;;7.07;1.83;;;13.00;99.80;;;;;;5095773;27;20380;-75
2021/04/21 13:32:51;;;;;;;7.15;2.75;;;13.10;99.90;;;;;;5087294;28;20024;-74
2021/04/21 13:35:21;;;;;;;8.48;2.50;;;13.20;99.60;;;;;;5087897;28;20024;-76
2021/04/21 13:37:50;;;;;;;8.10;1.98;;;13.20;98.80;;;;;;5087748;28;20435;-74
2021/04/21 13:40:21;;;;;;;10.18;3.83;;;13.20;99.10;;;;;;5087476;28;20070;-75
2021/04/21 13:42:49;;;;;;;6.93;1.70;;;13.30;99.60;;;;;;5087869;28;20036;-75
2021/04/21 13:45:22;;;;;;;13.18;2.20;;;13.30;98.70;;;;;;5087912;28;20020;-75
2021/04/21 13:47:49;;;;;;;9.77;2.50;;;13.30;99.30;;;;;;5088170;28;20028;-75
2021/04/21 13:50:16;;;;;;;13.43;2.25;;;13.50;99.40;;;;;;5088678;28;20086;-75
2021/04/21 13:52:42;;;;;;;10.68;1.95;;;13.60;98.40;;;;;;5088184;28;20035;-75
2021/04/21 13:55:10;;;;;;;11.68;2.20;;;13.40;98.20;;;;;;5089060;28;20021;-75
2021/04/21 13:57:35;;;;;;;9.88;2.60;;;13.50;98.50;;;;;;5088882;28;20051;-75
2021/04/21 14:00:03;;;;;;;11.10;2.30;;;13.70;97.70;;;;;;5087992;28;20419;-75
2021/04/21 14:02:28;;;;;;;12.25;2.45;;;13.50;97.80;;;;;;5088535;28;20131;-75
2021/04/21 14:04:54;;;;;;;12.85;2.97;;;13.60;98.20;;;;;;5088664;28;20119;-75
2021/04/21 14:07:20;;;;;;;12.43;3.65;;;13.60;98.20;;;;;;5087785;28;20024;-75
2021/04/21 14:09:45;;;;;;;9.35;2.38;;;13.70;98.50;;;;;;5088774;28;20039;-75
2021/04/21 14:12:12;;;;;;;11.32;2.28;;;13.70;97.10;;;;;;5088463;28;20055;-75
2021/04/21 14:14:38;;;;;;;7.35;2.35;;;13.70;96.20;;;;;;5087645;28;20051;-76
2021/04/21 14:17:04;;;;;;;14.02;2.55;;;13.60;96.30;;;;;;5086945;28;20413;-75
2021/04/21 14:19:30;;;;;;;17.33;3.45;;;13.60;96.50;;;;;;5088137;28;20545;-74
2021/04/21 14:21:56;;;;;;;8.57;2.60;;;13.70;96.30;;;;;;5087464;28;20020;-75
2021/04/21 14:24:22;;;;;;;7.68;2.30;;;13.70;97.00;;;;;;5088196;28;20116;-75
2021/04/21 14:26:48;;;;;;;10.77;2.65;;;13.50;95.70;;;;;;5088419;28;20345;-74
2021/04/21 14:29:14;;;;;;;9.57;2.72;;;13.50;96.90;;;;;;5087560;28;20057;-75
2021/04/21 14:31:40;;;;;;;13.60;2.45;;;13.50;96.10;;;;;;5088062;28;20019;-76
2021/04/21 14:34:06;;;;;;;9.75;2.70;;;13.50;96.30;;;;;;5088257;28;20111;-75
2021/04/21 14:36:33;;;;;;;14.32;2.90;;;13.70;97.30;;;;;;5087590;28;20029;-75
2021/04/21 14:38:59;;;;;;;12.50;2.88;;;13.70;96.60;;;;;;5088524;28;20476;-75
2021/04/21 14:41:26;;;;;;;14.13;4.03;;;13.80;97.00;;;;;;5076103;28;20039;-75
2021/04/21 14:43:52;;;;;;;11.65;3.08;;;13.90;95.20;;;;;;5074050;28;20119;-75
2021/04/21 14:46:21;;;;;;;11.60;2.63;;;13.80;95.90;;;;;;5074025;28;20056;-75
2021/04/21 14:48:47;;;;;;;14.38;3.28;;;14.10;96.20;;;;;;5074427;28;20071;-75
2021/04/21 14:51:13;;;;;;;18.17;3.80;;;14.20;95.10;;;;;;5073749;28;20056;-75
2021/04/21 14:53:38;;;;;;;10.30;3.10;;;14.20;95.10;;;;;;5073936;28;20021;-75
2021/04/21 14:56:04;;;;;;;19.63;3.17;;;14.00;95.30;;;;;;5073822;28;20028;-75
2021/04/21 14:58:30;;;;;;;15.82;3.78;;;14.00;94.80;;;;;;5074331;28;20452;-75
2021/04/21 15:00:56;;;;;;;9.73;3.25;;;13.80;95.10;;;;;;5075842;28;20024;-75
2021/04/21 15:03:21;;;;;;;12.27;4.78;;;13.70;95.30;;;;;;5073320;28;20082;-75
2021/04/21 15:05:47;;;;;;;9.98;3.47;;;13.90;95.30;;;;;;5074522;28;20484;-75
2021/04/21 15:08:14;;;;;;;14.98;3.47;;;13.90;96.30;;;;;;5074837;28;20111;-75
2021/04/21 15:10:39;;;;;;;11.27;3.33;;;13.70;95.10;;;;;;5074029;28;20029;-75
2021/04/21 15:13:06;;;;;;;9.75;2.97;;;13.70;96.00;;;;;;5075540;28;20107;-75
2021/04/21 15:15:32;;;;;;;13.52;3.75;;;13.60;95.70;;;;;;5075056;28;20476;-74
2021/04/21 15:17:58;;;;;;;17.35;3.55;;;13.70;96.20;;;;;;5073452;28;20025;-76
2021/04/21 15:20:25;;;;;;;23.30;5.15;;;13.80;94.20;;;;;;5073926;28;20085;-75
2021/04/21 15:22:51;;;;;;;15.95;3.60;;;13.60;95.00;;;;;;5074178;28;20017;-75
2021/04/21 15:25:20;;;;;;;12.50;3.33;;;13.60;94.60;;;;;;5073578;28;20518;-75
2021/04/21 15:27:49;;;;;;;14.38;3.35;;;13.40;94.20;;;;;;5073881;28;20534;-75
2021/04/21 15:30:20;;;;;;;9.20;3.80;;;13.10;94.70;;;;;;5073635;28;20052;-75
2021/04/21 15:32:47;;;;;;;12.43;3.72;;;13.00;94.90;;;;;;5073257;28;20020;-75
2021/04/21 15:35:15;;;;;;;12.05;3.83;;;13.20;95.70;;;;;;5074107;28;20025;-75
2021/04/21 15:37:43;;;;;;;12.68;3.40;;;13.20;94.90;;;;;;5073559;28;20025;-75
2021/04/21 15:40:14;;;;;;;13.35;3.83;;;13.10;93.40;;;;;;5073123;28;20028;-75
2021/04/21 15:42:43;;;;;;;11.50;3.42;;;13.10;95.70;;;;;;5073423;28;20116;-75
2021/04/21 15:45:34;;;;;;;11.85;3.78;;;13.10;92.30;;;;;;5072847;28;20029;-76
2021/04/21 15:48:00;;;;;;;8.90;3.20;;;12.80;91.80;;;;;;5073215;28;20036;-74
2021/04/21 15:50:26;;;;;;;13.60;3.40;;;12.90;92.30;;;;;;5072984;28;20492;-75
2021/04/21 15:52:51;;;;;;;11.40;3.80;;;12.70;93.30;;;;;;5071324;28;20442;-75
2021/04/21 15:55:19;;;;;;;11.93;3.13;;;12.70;93.00;;;;;;5072973;28;20038;-76
2021/04/21 15:57:49;;;;;;;12.00;3.65;;;12.60;92.80;;;;;;5072912;28;20473;-74
2021/04/21 16:00:16;;;;;;;9.30;3.25;;;12.60;92.80;;;;;;5072253;28;20344;-74
2021/04/21 16:02:51;;;;;;;9.00;2.60;;;12.60;92.80;;;;;;5072585;28;20040;-74
2021/04/21 16:05:21;;;;;;;6.97;2.65;;;12.70;92.40;;;;;;5072328;28;20499;-75
2021/04/21 16:07:48;;;;;;;7.10;2.40;;;12.80;91.40;;;;;;5072235;28;20032;-75
2021/04/21 16:10:19;;;;;;;9.88;2.80;;;12.80;90.00;;;;;;5072684;28;20040;-75
2021/04/21 16:12:45;;;;;;;8.82;2.25;;;12.80;90.40;;;;;;5072677;28;20150;-74
2021/04/21 16:15:12;;;;;;;8.05;3.13;;;12.90;89.30;;;;;;5071488;28;20477;-75
2021/04/21 16:17:37;;;;;;;10.20;3.00;;;12.70;86.60;;;;;;5071879;28;20032;-74
2021/04/21 16:20:05;;;;;;;10.23;2.97;;;12.50;88.60;;;;;;5072442;28;20020;-76
2021/04/21 16:22:30;;;;;;;6.95;2.10;;;12.50;88.60;;;;;;5071084;28;20035;-75
2021/04/21 16:24:56;;;;;;;10.65;2.83;;;12.50;87.60;;;;;;5072296;28;20017;-75
2021/04/21 16:27:22;;;;;;;9.85;2.92;;;12.40;86.80;;;;;;5071411;28;20040;-74
2021/04/21 16:29:47;;;;;;;8.52;2.83;;;12.50;90.10;;;;;;5072009;28;20044;-74